This is the latest recevied weather packets stored in our database for station/object W3UGI. If no packets are shown the sender has not sent any weather packets the latest 1 day(s).
| Time | Temp. | Humidity | Pressure | Rain* | Wind** | Luminosity | Snow |
|---|---|---|---|---|---|---|---|
| 1778025808 | 24.44° C | 46% | 1008.7 hPa | 0 mm | 2.24 m/s, 146° | - | - |
| 1778024920 | 24.44° C | 46% | 1008.6 hPa | 0 mm | 2.24 m/s, 242° | - | - |
| 1778024027 | 25° C | 46% | 1008.5 hPa | 0 mm | 1.79 m/s, 188° | - | - |
| 1778023102 | 25° C | 45% | 1008.4 hPa | 0 mm | 2.68 m/s, 224° | - | - |
| 1778022214 | 25.56° C | 44% | 1008.4 hPa | 0 mm | 2.68 m/s, 242° | - | - |
| 1778021309 | 26.11° C | 41% | 1008.3 hPa | 0 mm | 3.13 m/s, 191° | - | - |
| 1778020404 | 26.67° C | 38% | 1008 hPa | 0 mm | 4.47 m/s, 213° | - | - |
| 1778019502 | 26.67° C | 38% | 1008 hPa | 0 mm | 2.24 m/s, 232° | - | - |
| 1778018596 | 26.67° C | 36% | 1008 hPa | 0 mm | 1.79 m/s, 205° | - | - |
| 1778017708 | 26.67° C | 36% | 1008 hPa | 0 mm | 2.68 m/s, 284° | - | - |
| 1778016805 | 26.67° C | 36% | 1007.9 hPa | 0 mm | 4.02 m/s, 190° | - | - |
| 1778015931 | 26.67° C | 35% | 1007.9 hPa | 0 mm | 2.24 m/s, 208° | - | - |
| 1778015003 | 26.67° C | 34% | 1008.1 hPa | 0 mm | 3.58 m/s, 209° | - | - |
| 1778014112 | 27.22° C | 34% | 1007.8 hPa | 0 mm | 1.34 m/s, 207° | - | - |
| 1778013224 | 27.22° C | 34% | 1007.9 hPa | 0 mm | 0.89 m/s, 259° | - | - |
| 1778012335 | 27.22° C | 32% | 1008 hPa | 0 mm | 4.02 m/s, 209° | - | - |
| 1778011426 | 27.78° C | 33% | 1007.9 hPa | 0 mm | 2.24 m/s, 188° | - | - |
| 1778010500 | 27.78° C | 35% | 1008 hPa | 0 mm | 1.34 m/s, 242° | - | - |
| 1778009632 | 27.78° C | 33% | 1008.1 hPa | 0 mm | 5.36 m/s, 205° | - | - |
| 1778008698 | 27.78° C | 36% | 1008.2 hPa | 0 mm | 3.13 m/s, 171° | - | - |
| 1778007811 | 27.78° C | 36% | 1008.5 hPa | 0 mm | 2.68 m/s, 187° | - | - |
| 1778006925 | 27.22° C | 41% | 1008.7 hPa | 0 mm | 2.68 m/s, 214° | - | - |
| 1778005994 | 27.22° C | 41% | 1008.8 hPa | 0 mm | 3.58 m/s, 162° | - | - |
| 1778005104 | 27.22° C | 44% | 1009.1 hPa | 0 mm | 1.79 m/s, 168° | - | - |
| 1778004197 | 27.22° C | 44% | 1009.2 hPa | 0 mm | 3.13 m/s, 216° | - | - |
* Rain latest hour (hover to see other rain measurements)
** Current wind speed in m/s (hover to see current wind gust speed)